Ostby, North Dakota
Current Conditions -  °F | °C
As of 2:55 PM on Saturday 20 Dec 2014 (Local Time) from KRUG Reporting Station
Overcast Overcast  
Wind Chill: 16°   Ceiling: 300
Heat Index: 25°   Visibility: 8mi
Dew Point: 25°   Wind: 8mph
Humidity: 100%   Direction: 140°SE
Pressure: 29.82"   Gusts: NA
Location:  48.5496°N, 100.255°W
Report Text: KRUG 202055Z AUTO 14007KT 8SM OVC003 M04/M04 A2982 RMK AO2
Loading
Personal Weather Stations






























Interactive Weather Map New forecast layout! Learn more

10-Day Weather Forecast

Advertisements
Track Severe Weather on mobile